sensor_id;sensor_type;location;lat;lon;timestamp;P1;durP1;ratioP1;P2;durP2;ratioP2
20203;SDS011;10261;49.010;12.034;2023-04-15T00:00:33;3.65;;;3.35;;
20203;SDS011;10261;49.010;12.034;2023-04-15T00:01:35;3.63;;;3.33;;
20203;SDS011;10261;49.010;12.034;2023-04-15T00:02:39;4.65;;;3.70;;
20203;SDS011;10261;49.010;12.034;2023-04-15T00:03:41;7.45;;;3.92;;
20203;SDS011;10261;49.010;12.034;2023-04-15T00:04:44;4.25;;;3.60;;
20203;SDS011;10261;49.010;12.034;2023-04-15T00:05:46;3.55;;;3.25;;
20203;SDS011;10261;49.010;12.034;2023-04-15T00:06:50;4.32;;;3.92;;
20203;SDS011;10261;49.010;12.034;2023-04-15T00:07:54;4.10;;;3.75;;
20203;SDS011;10261;49.010;12.034;2023-04-15T00:08:57;3.38;;;3.08;;
20203;SDS011;10261;49.010;12.034;2023-04-15T00:10:00;5.47;;;3.50;;
20203;SDS011;10261;49.010;12.034;2023-04-15T00:11:04;4.95;;;3.92;;
20203;SDS011;10261;49.010;12.034;2023-04-15T00:12:06;3.42;;;3.13;;
20203;SDS011;10261;49.010;12.034;2023-04-15T00:13:10;5.30;;;4.13;;
20203;SDS011;10261;49.010;12.034;2023-04-15T00:14:12;4.05;;;3.63;;
20203;SDS011;10261;49.010;12.034;2023-04-15T00:15:15;4.97;;;3.63;;
20203;SDS011;10261;49.010;12.034;2023-04-15T00:16:17;3.17;;;2.88;;
20203;SDS011;10261;49.010;12.034;2023-04-15T00:17:20;4.05;;;3.65;;
20203;SDS011;10261;49.010;12.034;2023-04-15T00:18:22;4.95;;;3.13;;
20203;SDS011;10261;49.010;12.034;2023-04-15T00:19:26;3.25;;;2.95;;
20203;SDS011;10261;49.010;12.034;2023-04-15T00:20:28;3.88;;;3.10;;
20203;SDS011;10261;49.010;12.034;2023-04-15T00:21:31;4.35;;;3.60;;
20203;SDS011;10261;49.010;12.034;2023-04-15T00:22:33;4.05;;;3.65;;
20203;SDS011;10261;49.010;12.034;2023-04-15T00:23:38;3.92;;;3.50;;
20203;SDS011;10261;49.010;12.034;2023-04-15T00:24:40;3.90;;;3.60;;
20203;SDS011;10261;49.010;12.034;2023-04-15T00:25:43;3.58;;;3.30;;
20203;SDS011;10261;49.010;12.034;2023-04-15T00:26:45;3.88;;;3.45;;
20203;SDS011;10261;49.010;12.034;2023-04-15T00:27:48;3.33;;;3.03;;
20203;SDS011;10261;49.010;12.034;2023-04-15T00:28:50;4.50;;;3.85;;
20203;SDS011;10261;49.010;12.034;2023-04-15T00:29:54;5.20;;;3.45;;
20203;SDS011;10261;49.010;12.034;2023-04-15T00:30:56;6.78;;;3.75;;
20203;SDS011;10261;49.010;12.034;2023-04-15T00:31:59;4.88;;;2.72;;
20203;SDS011;10261;49.010;12.034;2023-04-15T00:33:01;3.17;;;2.88;;
20203;SDS011;10261;49.010;12.034;2023-04-15T00:34:04;4.65;;;3.08;;
20203;SDS011;10261;49.010;12.034;2023-04-15T00:35:07;3.70;;;3.30;;
20203;SDS011;10261;49.010;12.034;2023-04-15T00:36:10;3.63;;;3.33;;
20203;SDS011;10261;49.010;12.034;2023-04-15T00:37:12;3.90;;;3.60;;
20203;SDS011;10261;49.010;12.034;2023-04-15T00:38:15;3.22;;;2.92;;
20203;SDS011;10261;49.010;12.034;2023-04-15T00:39:19;3.25;;;3.05;;
20203;SDS011;10261;49.010;12.034;2023-04-15T00:40:22;3.88;;;3.25;;
20203;SDS011;10261;49.010;12.034;2023-04-15T00:41:25;4.95;;;3.50;;
20203;SDS011;10261;49.010;12.034;2023-04-15T00:42:28;3.47;;;2.50;;
20203;SDS011;10261;49.010;12.034;2023-04-15T00:43:30;4.00;;;3.15;;
20203;SDS011;10261;49.010;12.034;2023-04-15T00:44:33;3.60;;;3.20;;
20203;SDS011;10261;49.010;12.034;2023-04-15T00:45:35;4.72;;;3.15;;
20203;SDS011;10261;49.010;12.034;2023-04-15T00:46:38;3.55;;;3.10;;
20203;SDS011;10261;49.010;12.034;2023-04-15T00:47:42;7.53;;;3.58;;
20203;SDS011;10261;49.010;12.034;2023-04-15T00:48:45;3.05;;;2.75;;
20203;SDS011;10261;49.010;12.034;2023-04-15T00:49:48;3.38;;;3.10;;
20203;SDS011;10261;49.010;12.034;2023-04-15T00:50:51;3.38;;;3.10;;
20203;SDS011;10261;49.010;12.034;2023-04-15T00:51:53;3.15;;;2.88;;
20203;SDS011;10261;49.010;12.034;2023-04-15T00:52:56;5.85;;;3.55;;
20203;SDS011;10261;49.010;12.034;2023-04-15T00:53:58;3.63;;;3.00;;
20203;SDS011;10261;49.010;12.034;2023-04-15T00:55:03;4.65;;;3.00;;
20203;SDS011;10261;49.010;12.034;2023-04-15T00:56:05;3.13;;;2.65;;
20203;SDS011;10261;49.010;12.034;2023-04-15T00:57:09;3.53;;;2.90;;
20203;SDS011;10261;49.010;12.034;2023-04-15T00:58:11;3.80;;;2.90;;
20203;SDS011;10261;49.010;12.034;2023-04-15T00:59:14;3.20;;;2.97;;
20203;SDS011;10261;49.010;12.034;2023-04-15T01:00:17;4.20;;;3.42;;
20203;SDS011;10261;49.010;12.034;2023-04-15T01:01:20;3.60;;;2.92;;
20203;SDS011;10261;49.010;12.034;2023-04-15T01:02:25;3.95;;;3.15;;
20203;SDS011;10261;49.010;12.034;2023-04-15T01:03:28;3.05;;;2.75;;
20203;SDS011;10261;49.010;12.034;2023-04-15T01:04:31;3.28;;;2.97;;
20203;SDS011;10261;49.010;12.034;2023-04-15T01:05:34;8.85;;;3.13;;
20203;SDS011;10261;49.010;12.034;2023-04-15T01:06:37;4.38;;;3.35;;
20203;SDS011;10261;49.010;12.034;2023-04-15T01:07:39;3.33;;;3.10;;
20203;SDS011;10261;49.010;12.034;2023-04-15T01:08:42;4.43;;;4.05;;
20203;SDS011;10261;49.010;12.034;2023-04-15T01:09:45;3.30;;;2.90;;
20203;SDS011;10261;49.010;12.034;2023-04-15T01:10:50;3.10;;;2.90;;
20203;SDS011;10261;49.010;12.034;2023-04-15T01:11:52;5.07;;;3.33;;
20203;SDS011;10261;49.010;12.034;2023-04-15T01:12:55;3.45;;;3.15;;
20203;SDS011;10261;49.010;12.034;2023-04-15T01:13:57;3.15;;;2.80;;
20203;SDS011;10261;49.010;12.034;2023-04-15T01:15:00;5.20;;;3.50;;
20203;SDS011;10261;49.010;12.034;2023-04-15T01:16:02;2.90;;;2.70;;
20203;SDS011;10261;49.010;12.034;2023-04-15T01:17:06;4.50;;;3.63;;
20203;SDS011;10261;49.010;12.034;2023-04-15T01:18:08;4.38;;;3.38;;
20203;SDS011;10261;49.010;12.034;2023-04-15T01:19:12;3.60;;;3.33;;
20203;SDS011;10261;49.010;12.034;2023-04-15T01:20:16;3.97;;;3.30;;
20203;SDS011;10261;49.010;12.034;2023-04-15T01:21:20;3.53;;;3.22;;
20203;SDS011;10261;49.010;12.034;2023-04-15T01:22:23;3.30;;;3.00;;
20203;SDS011;10261;49.010;12.034;2023-04-15T01:23:27;3.50;;;2.92;;
20203;SDS011;10261;49.010;12.034;2023-04-15T01:24:29;3.58;;;3.28;;
20203;SDS011;10261;49.010;12.034;2023-04-15T01:25:35;5.32;;;2.75;;
20203;SDS011;10261;49.010;12.034;2023-04-15T01:26:37;8.98;;;3.30;;
20203;SDS011;10261;49.010;12.034;2023-04-15T01:27:41;4.55;;;3.22;;
20203;SDS011;10261;49.010;12.034;2023-04-15T01:28:43;4.07;;;3.03;;
20203;SDS011;10261;49.010;12.034;2023-04-15T01:29:46;4.47;;;3.58;;
20203;SDS011;10261;49.010;12.034;2023-04-15T01:30:48;4.20;;;3.50;;
20203;SDS011;10261;49.010;12.034;2023-04-15T01:31:52;4.10;;;3.78;;
20203;SDS011;10261;49.010;12.034;2023-04-15T01:32:55;5.72;;;3.70;;
20203;SDS011;10261;49.010;12.034;2023-04-15T01:33:58;3.13;;;2.88;;
20203;SDS011;10261;49.010;12.034;2023-04-15T01:35:01;4.07;;;3.67;;
20203;SDS011;10261;49.010;12.034;2023-04-15T01:36:04;3.63;;;3.30;;
20203;SDS011;10261;49.010;12.034;2023-04-15T01:37:08;4.40;;;3.63;;
20203;SDS011;10261;49.010;12.034;2023-04-15T01:38:11;3.72;;;3.20;;
20203;SDS011;10261;49.010;12.034;2023-04-15T01:39:13;3.92;;;3.63;;
20203;SDS011;10261;49.010;12.034;2023-04-15T01:40:16;3.30;;;3.00;;
20203;SDS011;10261;49.010;12.034;2023-04-15T01:41:22;3.83;;;3.53;;
20203;SDS011;10261;49.010;12.034;2023-04-15T01:42:27;3.60;;;3.30;;
20203;SDS011;10261;49.010;12.034;2023-04-15T01:43:29;4.90;;;4.05;;
20203;SDS011;10261;49.010;12.034;2023-04-15T01:44:32;4.50;;;4.10;;
20203;SDS011;10261;49.010;12.034;2023-04-15T01:45:34;4.05;;;3.72;;
20203;SDS011;10261;49.010;12.034;2023-04-15T01:46:37;4.45;;;4.03;;
20203;SDS011;10261;49.010;12.034;2023-04-15T01:47:39;3.50;;;3.20;;
20203;SDS011;10261;49.010;12.034;2023-04-15T01:48:42;4.93;;;3.75;;
20203;SDS011;10261;49.010;12.034;2023-04-15T01:49:44;5.00;;;3.47;;
20203;SDS011;10261;49.010;12.034;2023-04-15T01:50:48;3.90;;;3.25;;
20203;SDS011;10261;49.010;12.034;2023-04-15T01:51:50;8.27;;;4.22;;
20203;SDS011;10261;49.010;12.034;2023-04-15T01:52:54;3.88;;;3.47;;
20203;SDS011;10261;49.010;12.034;2023-04-15T01:53:56;4.85;;;3.97;;
20203;SDS011;10261;49.010;12.034;2023-04-15T01:54:59;4.05;;;3.30;;
20203;SDS011;10261;49.010;12.034;2023-04-15T01:56:01;3.63;;;3.33;;
20203;SDS011;10261;49.010;12.034;2023-04-15T01:57:05;4.53;;;4.13;;
20203;SDS011;10261;49.010;12.034;2023-04-15T01:58:07;3.83;;;3.20;;
20203;SDS011;10261;49.010;12.034;2023-04-15T01:59:10;4.05;;;3.75;;
20203;SDS011;10261;49.010;12.034;2023-04-15T02:00:13;4.03;;;3.38;;
20203;SDS011;10261;49.010;12.034;2023-04-15T02:01:16;5.93;;;3.88;;
20203;SDS011;10261;49.010;12.034;2023-04-15T02:02:20;4.85;;;3.80;;
20203;SDS011;10261;49.010;12.034;2023-04-15T02:03:23;4.10;;;3.38;;
20203;SDS011;10261;49.010;12.034;2023-04-15T02:04:26;3.72;;;3.42;;
20203;SDS011;10261;49.010;12.034;2023-04-15T02:05:29;4.13;;;3.40;;
20203;SDS011;10261;49.010;12.034;2023-04-15T02:06:31;4.95;;;4.50;;
20203;SDS011;10261;49.010;12.034;2023-04-15T02:07:34;3.30;;;3.00;;
20203;SDS011;10261;49.010;12.034;2023-04-15T02:08:36;4.93;;;3.97;;
20203;SDS011;10261;49.010;12.034;2023-04-15T02:09:39;4.18;;;3.83;;
20203;SDS011;10261;49.010;12.034;2023-04-15T02:10:41;4.60;;;3.80;;
20203;SDS011;10261;49.010;12.034;2023-04-15T02:11:44;4.55;;;3.67;;
20203;SDS011;10261;49.010;12.034;2023-04-15T02:12:47;3.92;;;3.38;;
20203;SDS011;10261;49.010;12.034;2023-04-15T02:13:50;5.70;;;3.70;;
20203;SDS011;10261;49.010;12.034;2023-04-15T02:14:52;4.43;;;3.65;;
20203;SDS011;10261;49.010;12.034;2023-04-15T02:15:56;8.93;;;3.60;;
20203;SDS011;10261;49.010;12.034;2023-04-15T02:16:57;4.20;;;3.67;;
20203;SDS011;10261;49.010;12.034;2023-04-15T02:18:07;3.45;;;3.15;;
20203;SDS011;10261;49.010;12.034;2023-04-15T02:19:09;4.35;;;3.55;;
20203;SDS011;10261;49.010;12.034;2023-04-15T02:20:12;4.63;;;4.25;;
20203;SDS011;10261;49.010;12.034;2023-04-15T02:21:15;3.80;;;3.50;;
20203;SDS011;10261;49.010;12.034;2023-04-15T02:22:19;4.05;;;3.40;;
20203;SDS011;10261;49.010;12.034;2023-04-15T02:23:21;5.60;;;4.25;;
20203;SDS011;10261;49.010;12.034;2023-04-15T02:24:24;4.82;;;4.10;;
20203;SDS011;10261;49.010;12.034;2023-04-15T02:25:26;3.83;;;3.38;;
20203;SDS011;10261;49.010;12.034;2023-04-15T02:26:29;4.60;;;4.20;;
20203;SDS011;10261;49.010;12.034;2023-04-15T02:27:32;4.07;;;3.67;;
20203;SDS011;10261;49.010;12.034;2023-04-15T02:28:38;4.80;;;3.70;;
20203;SDS011;10261;49.010;12.034;2023-04-15T02:29:40;4.40;;;4.00;;
20203;SDS011;10261;49.010;12.034;2023-04-15T02:30:43;5.53;;;4.18;;
20203;SDS011;10261;49.010;12.034;2023-04-15T02:31:48;5.30;;;3.22;;
20203;SDS011;10261;49.010;12.034;2023-04-15T02:32:51;5.50;;;4.32;;
20203;SDS011;10261;49.010;12.034;2023-04-15T02:33:53;5.68;;;4.45;;
20203;SDS011;10261;49.010;12.034;2023-04-15T02:34:56;4.30;;;3.90;;
20203;SDS011;10261;49.010;12.034;2023-04-15T02:36:04;4.45;;;3.78;;
20203;SDS011;10261;49.010;12.034;2023-04-15T02:37:08;4.25;;;3.78;;
20203;SDS011;10261;49.010;12.034;2023-04-15T02:38:10;4.47;;;4.07;;
20203;SDS011;10261;49.010;12.034;2023-04-15T02:39:14;2.95;;;2.70;;
20203;SDS011;10261;49.010;12.034;2023-04-15T02:40:17;4.18;;;3.78;;
20203;SDS011;10261;49.010;12.034;2023-04-15T02:41:20;3.75;;;3.05;;
20203;SDS011;10261;49.010;12.034;2023-04-15T02:42:27;4.28;;;3.88;;
20203;SDS011;10261;49.010;12.034;2023-04-15T02:43:30;4.45;;;3.65;;
20203;SDS011;10261;49.010;12.034;2023-04-15T02:44:33;3.83;;;3.53;;
20203;SDS011;10261;49.010;12.034;2023-04-15T02:45:36;5.82;;;3.97;;
20203;SDS011;10261;49.010;12.034;2023-04-15T02:46:39;3.88;;;3.58;;
20203;SDS011;10261;49.010;12.034;2023-04-15T02:47:42;3.95;;;3.60;;
20203;SDS011;10261;49.010;12.034;2023-04-15T02:48:46;4.55;;;4.15;;
20203;SDS011;10261;49.010;12.034;2023-04-15T02:49:49;4.53;;;4.13;;
20203;SDS011;10261;49.010;12.034;2023-04-15T02:50:51;4.28;;;3.63;;
20203;SDS011;10261;49.010;12.034;2023-04-15T02:51:54;4.30;;;3.90;;
20203;SDS011;10261;49.010;12.034;2023-04-15T02:52:56;4.00;;;3.60;;
20203;SDS011;10261;49.010;12.034;2023-04-15T02:53:58;5.60;;;3.47;;
20203;SDS011;10261;49.010;12.034;2023-04-15T02:55:01;4.53;;;3.85;;
20203;SDS011;10261;49.010;12.034;2023-04-15T02:56:05;2.97;;;2.78;;
20203;SDS011;10261;49.010;12.034;2023-04-15T02:57:08;12.05;;;4.13;;
20203;SDS011;10261;49.010;12.034;2023-04-15T02:58:11;4.10;;;3.70;;
20203;SDS011;10261;49.010;12.034;2023-04-15T02:59:13;3.90;;;3.60;;
20203;SDS011;10261;49.010;12.034;2023-04-15T03:00:18;3.45;;;3.15;;
20203;SDS011;10261;49.010;12.034;2023-04-15T03:01:20;4.18;;;3.47;;
20203;SDS011;10261;49.010;12.034;2023-04-15T03:02:23;4.60;;;3.88;;
20203;SDS011;10261;49.010;12.034;2023-04-15T03:03:25;4.03;;;3.72;;
20203;SDS011;10261;49.010;12.034;2023-04-15T03:04:29;5.85;;;4.50;;
20203;SDS011;10261;49.010;12.034;2023-04-15T03:05:31;4.15;;;3.22;;
20203;SDS011;10261;49.010;12.034;2023-04-15T03:06:34;4.05;;;3.70;;
20203;SDS011;10261;49.010;12.034;2023-04-15T03:07:36;4.30;;;3.42;;
20203;SDS011;10261;49.010;12.034;2023-04-15T03:08:40;3.53;;;3.22;;
20203;SDS011;10261;49.010;12.034;2023-04-15T03:09:42;4.38;;;3.70;;
20203;SDS011;10261;49.010;12.034;2023-04-15T03:10:45;4.78;;;3.90;;
20203;SDS011;10261;49.010;12.034;2023-04-15T03:11:47;5.28;;;4.25;;
20203;SDS011;10261;49.010;12.034;2023-04-15T03:12:51;5.03;;;3.55;;
20203;SDS011;10261;49.010;12.034;2023-04-15T03:13:53;4.43;;;4.05;;
20203;SDS011;10261;49.010;12.034;2023-04-15T03:14:56;4.35;;;3.50;;
20203;SDS011;10261;49.010;12.034;2023-04-15T03:16:00;4.53;;;4.10;;
20203;SDS011;10261;49.010;12.034;2023-04-15T03:17:03;4.32;;;3.35;;
20203;SDS011;10261;49.010;12.034;2023-04-15T03:18:05;4.97;;;4.40;;
20203;SDS011;10261;49.010;12.034;2023-04-15T03:19:08;5.32;;;4.55;;
20203;SDS011;10261;49.010;12.034;2023-04-15T03:20:10;4.65;;;4.13;;
20203;SDS011;10261;49.010;12.034;2023-04-15T03:21:13;4.55;;;4.15;;
20203;SDS011;10261;49.010;12.034;2023-04-15T03:22:15;6.63;;;4.45;;
20203;SDS011;10261;49.010;12.034;2023-04-15T03:23:18;4.97;;;4.57;;
20203;SDS011;10261;49.010;12.034;2023-04-15T03:24:20;6.38;;;4.43;;
20203;SDS011;10261;49.010;12.034;2023-04-15T03:25:23;5.70;;;4.07;;
20203;SDS011;10261;49.010;12.034;2023-04-15T03:26:25;4.70;;;4.20;;
20203;SDS011;10261;49.010;12.034;2023-04-15T03:27:29;4.90;;;4.45;;
20203;SDS011;10261;49.010;12.034;2023-04-15T03:28:32;4.43;;;4.00;;
20203;SDS011;10261;49.010;12.034;2023-04-15T03:29:35;5.05;;;4.65;;
20203;SDS011;10261;49.010;12.034;2023-04-15T03:30:37;4.15;;;3.80;;
20203;SDS011;10261;49.010;12.034;2023-04-15T03:31:41;4.60;;;4.18;;
20203;SDS011;10261;49.010;12.034;2023-04-15T03:32:43;4.25;;;3.85;;
20203;SDS011;10261;49.010;12.034;2023-04-15T03:33:46;5.72;;;5.05;;
20203;SDS011;10261;49.010;12.034;2023-04-15T03:34:48;4.47;;;4.07;;
20203;SDS011;10261;49.010;12.034;2023-04-15T03:35:51;5.40;;;4.90;;
20203;SDS011;10261;49.010;12.034;2023-04-15T03:36:54;6.38;;;5.07;;
20203;SDS011;10261;49.010;12.034;2023-04-15T03:37:57;6.30;;;5.38;;
20203;SDS011;10261;49.010;12.034;2023-04-15T03:38:59;6.88;;;4.43;;
20203;SDS011;10261;49.010;12.034;2023-04-15T03:40:03;5.63;;;4.93;;
20203;SDS011;10261;49.010;12.034;2023-04-15T03:41:05;6.97;;;5.05;;
20203;SDS011;10261;49.010;12.034;2023-04-15T03:42:08;5.43;;;5.00;;
20203;SDS011;10261;49.010;12.034;2023-04-15T03:43:10;6.95;;;5.68;;
20203;SDS011;10261;49.010;12.034;2023-04-15T03:44:13;6.45;;;5.75;;
20203;SDS011;10261;49.010;12.034;2023-04-15T03:45:15;6.50;;;5.60;;
20203;SDS011;10261;49.010;12.034;2023-04-15T03:46:18;6.43;;;5.60;;
20203;SDS011;10261;49.010;12.034;2023-04-15T03:47:22;7.35;;;5.55;;
20203;SDS011;10261;49.010;12.034;2023-04-15T03:48:25;10.13;;;6.00;;
20203;SDS011;10261;49.010;12.034;2023-04-15T03:49:27;10.88;;;5.32;;
20203;SDS011;10261;49.010;12.034;2023-04-15T03:50:30;9.27;;;6.35;;
20203;SDS011;10261;49.010;12.034;2023-04-15T03:51:32;7.90;;;6.03;;
20203;SDS011;10261;49.010;12.034;2023-04-15T03:52:35;8.40;;;6.07;;
20203;SDS011;10261;49.010;12.034;2023-04-15T03:53:37;6.63;;;5.93;;
20203;SDS011;10261;49.010;12.034;2023-04-15T03:54:40;9.10;;;6.38;;
20203;SDS011;10261;49.010;12.034;2023-04-15T03:55:42;7.18;;;5.55;;
20203;SDS011;10261;49.010;12.034;2023-04-15T03:56:45;9.75;;;5.70;;
20203;SDS011;10261;49.010;12.034;2023-04-15T03:57:47;8.05;;;5.60;;
20203;SDS011;10261;49.010;12.034;2023-04-15T03:58:50;8.18;;;6.85;;
20203;SDS011;10261;49.010;12.034;2023-04-15T03:59:52;8.82;;;6.53;;
20203;SDS011;10261;49.010;12.034;2023-04-15T04:00:55;7.85;;;6.47;;
20203;SDS011;10261;49.010;12.034;2023-04-15T04:01:57;8.70;;;6.30;;
20203;SDS011;10261;49.010;12.034;2023-04-15T04:03:02;9.05;;;6.72;;
20203;SDS011;10261;49.010;12.034;2023-04-15T04:04:04;6.80;;;5.78;;
20203;SDS011;10261;49.010;12.034;2023-04-15T04:05:08;8.73;;;6.65;;
20203;SDS011;10261;49.010;12.034;2023-04-15T04:06:10;9.23;;;6.43;;
20203;SDS011;10261;49.010;12.034;2023-04-15T04:07:14;7.15;;;6.07;;
20203;SDS011;10261;49.010;12.034;2023-04-15T04:08:16;7.50;;;5.78;;
20203;SDS011;10261;49.010;12.034;2023-04-15T04:09:20;6.88;;;6.18;;
20203;SDS011;10261;49.010;12.034;2023-04-15T04:10:22;7.80;;;5.75;;
20203;SDS011;10261;49.010;12.034;2023-04-15T04:11:25;7.70;;;5.00;;
20203;SDS011;10261;49.010;12.034;2023-04-15T04:12:28;10.32;;;6.50;;
20203;SDS011;10261;49.010;12.034;2023-04-15T04:13:31;7.32;;;5.85;;
20203;SDS011;10261;49.010;12.034;2023-04-15T04:14:33;6.93;;;5.70;;
20203;SDS011;10261;49.010;12.034;2023-04-15T04:15:36;7.72;;;5.88;;
20203;SDS011;10261;49.010;12.034;2023-04-15T04:16:38;6.07;;;4.80;;
20203;SDS011;10261;49.010;12.034;2023-04-15T04:17:41;6.28;;;5.63;;
20203;SDS011;10261;49.010;12.034;2023-04-15T04:18:44;7.20;;;5.57;;
20203;SDS011;10261;49.010;12.034;2023-04-15T04:19:47;6.82;;;5.95;;
20203;SDS011;10261;49.010;12.034;2023-04-15T04:20:49;6.22;;;5.68;;
20203;SDS011;10261;49.010;12.034;2023-04-15T04:21:52;7.25;;;5.50;;
20203;SDS011;10261;49.010;12.034;2023-04-15T04:22:54;7.28;;;5.80;;
20203;SDS011;10261;49.010;12.034;2023-04-15T04:23:57;6.45;;;5.82;;
20203;SDS011;10261;49.010;12.034;2023-04-15T04:24:59;6.47;;;5.30;;
20203;SDS011;10261;49.010;12.034;2023-04-15T04:26:02;6.53;;;5.43;;
20203;SDS011;10261;49.010;12.034;2023-04-15T04:27:04;7.60;;;5.60;;
20203;SDS011;10261;49.010;12.034;2023-04-15T04:28:07;6.80;;;5.65;;
20203;SDS011;10261;49.010;12.034;2023-04-15T04:29:09;5.80;;;5.20;;
20203;SDS011;10261;49.010;12.034;2023-04-15T04:30:12;11.27;;;5.32;;
20203;SDS011;10261;49.010;12.034;2023-04-15T04:31:14;7.55;;;5.70;;
20203;SDS011;10261;49.010;12.034;2023-04-15T04:32:17;8.48;;;6.32;;
20203;SDS011;10261;49.010;12.034;2023-04-15T04:33:19;6.35;;;5.72;;
20203;SDS011;10261;49.010;12.034;2023-04-15T04:34:24;6.93;;;6.00;;
20203;SDS011;10261;49.010;12.034;2023-04-15T04:35:26;12.95;;;7.32;;
20203;SDS011;10261;49.010;12.034;2023-04-15T04:36:29;8.40;;;6.50;;
20203;SDS011;10261;49.010;12.034;2023-04-15T04:37:31;6.63;;;5.57;;
20203;SDS011;10261;49.010;12.034;2023-04-15T04:38:34;10.82;;;6.18;;
20203;SDS011;10261;49.010;12.034;2023-04-15T04:39:36;7.90;;;5.40;;
20203;SDS011;10261;49.010;12.034;2023-04-15T04:40:39;7.60;;;6.00;;
20203;SDS011;10261;49.010;12.034;2023-04-15T04:41:41;9.15;;;5.65;;
20203;SDS011;10261;49.010;12.034;2023-04-15T04:42:44;12.18;;;6.35;;
20203;SDS011;10261;49.010;12.034;2023-04-15T04:43:46;7.35;;;6.47;;
20203;SDS011;10261;49.010;12.034;2023-04-15T04:44:49;9.20;;;6.25;;
20203;SDS011;10261;49.010;12.034;2023-04-15T04:45:51;7.35;;;6.25;;
20203;SDS011;10261;49.010;12.034;2023-04-15T04:46:54;8.60;;;6.85;;
20203;SDS011;10261;49.010;12.034;2023-04-15T04:47:56;7.43;;;6.15;;
20203;SDS011;10261;49.010;12.034;2023-04-15T04:48:59;9.10;;;5.63;;
20203;SDS011;10261;49.010;12.034;2023-04-15T04:50:03;8.20;;;6.85;;
20203;SDS011;10261;49.010;12.034;2023-04-15T04:51:07;6.90;;;6.30;;
20203;SDS011;10261;49.010;12.034;2023-04-15T04:52:09;8.25;;;6.55;;
20203;SDS011;10261;49.010;12.034;2023-04-15T04:53:13;9.00;;;6.15;;
20203;SDS011;10261;49.010;12.034;2023-04-15T04:54:15;9.15;;;5.75;;
20203;SDS011;10261;49.010;12.034;2023-04-15T04:55:18;7.70;;;6.90;;
20203;SDS011;10261;49.010;12.034;2023-04-15T04:56:20;6.90;;;6.20;;
20203;SDS011;10261;49.010;12.034;2023-04-15T04:57:23;6.97;;;6.15;;
20203;SDS011;10261;49.010;12.034;2023-04-15T04:58:25;7.82;;;6.07;;
20203;SDS011;10261;49.010;12.034;2023-04-15T04:59:28;7.68;;;6.20;;
20203;SDS011;10261;49.010;12.034;2023-04-15T05:00:30;7.45;;;5.90;;
20203;SDS011;10261;49.010;12.034;2023-04-15T05:01:34;6.88;;;6.18;;
20203;SDS011;10261;49.010;12.034;2023-04-15T05:02:36;6.30;;;5.68;;
20203;SDS011;10261;49.010;12.034;2023-04-15T05:03:39;7.47;;;6.30;;
20203;SDS011;10261;49.010;12.034;2023-04-15T05:04:42;9.43;;;6.68;;
20203;SDS011;10261;49.010;12.034;2023-04-15T05:05:46;10.27;;;7.25;;
20203;SDS011;10261;49.010;12.034;2023-04-15T05:06:49;8.52;;;6.75;;
20203;SDS011;10261;49.010;12.034;2023-04-15T05:07:52;7.88;;;6.18;;
20203;SDS011;10261;49.010;12.034;2023-04-15T05:08:54;7.22;;;6.38;;
20203;SDS011;10261;49.010;12.034;2023-04-15T05:09:57;6.97;;;6.20;;
20203;SDS011;10261;49.010;12.034;2023-04-15T05:10:59;12.80;;;6.72;;
20203;SDS011;10261;49.010;12.034;2023-04-15T05:12:02;7.43;;;6.05;;
20203;SDS011;10261;49.010;12.034;2023-04-15T05:13:04;12.38;;;7.03;;
20203;SDS011;10261;49.010;12.034;2023-04-15T05:14:07;9.73;;;6.97;;
20203;SDS011;10261;49.010;12.034;2023-04-15T05:15:09;8.20;;;6.00;;
20203;SDS011;10261;49.010;12.034;2023-04-15T05:16:12;7.20;;;6.50;;
20203;SDS011;10261;49.010;12.034;2023-04-15T05:17:15;7.82;;;6.60;;
20203;SDS011;10261;49.010;12.034;2023-04-15T05:18:17;8.32;;;6.57;;
20203;SDS011;10261;49.010;12.034;2023-04-15T05:19:19;7.28;;;5.55;;
20203;SDS011;10261;49.010;12.034;2023-04-15T05:20:22;9.27;;;6.20;;
20203;SDS011;10261;49.010;12.034;2023-04-15T05:21:26;7.97;;;6.47;;
20203;SDS011;10261;49.010;12.034;2023-04-15T05:22:29;7.57;;;6.35;;
20203;SDS011;10261;49.010;12.034;2023-04-15T05:23:31;7.75;;;5.78;;
20203;SDS011;10261;49.010;12.034;2023-04-15T05:24:34;7.28;;;5.65;;
20203;SDS011;10261;49.010;12.034;2023-04-15T05:25:36;6.40;;;5.45;;
20203;SDS011;10261;49.010;12.034;2023-04-15T05:26:39;5.05;;;4.60;;
20203;SDS011;10261;49.010;12.034;2023-04-15T05:27:43;14.50;;;5.85;;
20203;SDS011;10261;49.010;12.034;2023-04-15T05:28:46;7.47;;;6.03;;
20203;SDS011;10261;49.010;12.034;2023-04-15T05:29:48;7.53;;;5.95;;
20203;SDS011;10261;49.010;12.034;2023-04-15T05:30:51;9.35;;;6.50;;
20203;SDS011;10261;49.010;12.034;2023-04-15T05:31:53;7.15;;;6.28;;
20203;SDS011;10261;49.010;12.034;2023-04-15T05:32:56;6.40;;;5.05;;
20203;SDS011;10261;49.010;12.034;2023-04-15T05:33:58;6.97;;;6.22;;
20203;SDS011;10261;49.010;12.034;2023-04-15T05:35:01;7.78;;;6.45;;
20203;SDS011;10261;49.010;12.034;2023-04-15T05:36:03;7.20;;;5.80;;
20203;SDS011;10261;49.010;12.034;2023-04-15T05:37:08;7.97;;;6.43;;
20203;SDS011;10261;49.010;12.034;2023-04-15T05:38:10;5.97;;;4.80;;
20203;SDS011;10261;49.010;12.034;2023-04-15T05:39:13;6.53;;;5.05;;
20203;SDS011;10261;49.010;12.034;2023-04-15T05:40:15;5.18;;;4.68;;
20203;SDS011;10261;49.010;12.034;2023-04-15T05:41:18;5.82;;;5.22;;
20203;SDS011;10261;49.010;12.034;2023-04-15T05:42:21;4.80;;;4.35;;
20203;SDS011;10261;49.010;12.034;2023-04-15T05:43:24;6.03;;;4.65;;
20203;SDS011;10261;49.010;12.034;2023-04-15T05:44:26;6.60;;;4.57;;
20203;SDS011;10261;49.010;12.034;2023-04-15T05:45:29;8.15;;;5.30;;
20203;SDS011;10261;49.010;12.034;2023-04-15T05:46:32;5.45;;;4.95;;
20203;SDS011;10261;49.010;12.034;2023-04-15T05:47:34;7.55;;;4.55;;
20203;SDS011;10261;49.010;12.034;2023-04-15T05:48:38;5.20;;;4.25;;
20203;SDS011;10261;49.010;12.034;2023-04-15T05:49:40;6.50;;;4.60;;
20203;SDS011;10261;49.010;12.034;2023-04-15T05:50:42;5.03;;;4.47;;
20203;SDS011;10261;49.010;12.034;2023-04-15T05:51:46;5.35;;;4.03;;
20203;SDS011;10261;49.010;12.034;2023-04-15T05:52:50;4.75;;;4.05;;
20203;SDS011;10261;49.010;12.034;2023-04-15T05:53:52;5.80;;;4.60;;
20203;SDS011;10261;49.010;12.034;2023-04-15T05:54:55;5.45;;;4.57;;
20203;SDS011;10261;49.010;12.034;2023-04-15T05:55:57;5.45;;;4.70;;
20203;SDS011;10261;49.010;12.034;2023-04-15T05:57:00;6.28;;;5.03;;
20203;SDS011;10261;49.010;12.034;2023-04-15T05:58:03;6.57;;;4.55;;
20203;SDS011;10261;49.010;12.034;2023-04-15T05:59:05;5.82;;;4.90;;
20203;SDS011;10261;49.010;12.034;2023-04-15T06:00:08;4.75;;;4.35;;
20203;SDS011;10261;49.010;12.034;2023-04-15T06:01:11;5.88;;;4.18;;
20203;SDS011;10261;49.010;12.034;2023-04-15T06:02:13;5.55;;;4.35;;
20203;SDS011;10261;49.010;12.034;2023-04-15T06:03:17;4.82;;;4.05;;
20203;SDS011;10261;49.010;12.034;2023-04-15T06:04:19;4.03;;;3.63;;
20203;SDS011;10261;49.010;12.034;2023-04-15T06:05:22;4.47;;;3.70;;
20203;SDS011;10261;49.010;12.034;2023-04-15T06:06:24;3.92;;;3.53;;
20203;SDS011;10261;49.010;12.034;2023-04-15T06:07:27;4.95;;;3.80;;
20203;SDS011;10261;49.010;12.034;2023-04-15T06:08:31;4.10;;;3.70;;
20203;SDS011;10261;49.010;12.034;2023-04-15T06:09:34;3.80;;;3.45;;
20203;SDS011;10261;49.010;12.034;2023-04-15T06:10:36;4.30;;;3.00;;
20203;SDS011;10261;49.010;12.034;2023-04-15T06:11:39;3.47;;;3.17;;
20203;SDS011;10261;49.010;12.034;2023-04-15T06:12:41;3.78;;;3.38;;